Time;durP1;ratioP1;P1;durP2;ratioP2;P2;SDS_P1;SDS_P2;PMS_P1;PMS_P2;Temp;Humidity;BMP_temperature;BMP_pressure;BME280_temperature;BME280_humidity;BME280_pressure;Samples;Min_cycle;Max_cycle;Signal;HPM_P1;HPM_P2
2022/05/04 00:00:26;;;;;;;9.70;4.22;;;;;;;;;;5018759;28;20208;-60
2022/05/04 00:02:51;;;;;;;14.57;3.97;;;;;;;;;;5019040;28;20859;-60
2022/05/04 00:05:16;;;;;;;12.20;3.53;;;;;;;;;;5020438;28;20219;-60
2022/05/04 00:07:42;;;;;;;10.95;4.15;;;;;;;;;;5025654;28;20218;-60
2022/05/04 00:10:07;;;;;;;12.13;3.33;;;;;;;;;;5025793;28;20218;-60
2022/05/04 00:12:33;;;;;;;10.32;3.50;;;;;;;;;;5025677;28;20222;-60
2022/05/04 00:14:58;;;;;;;12.32;3.40;;;;;;;;;;5025246;28;20222;-60
2022/05/04 00:17:23;;;;;;;14.18;3.55;;;;;;;;;;5025015;28;20227;-60
2022/05/04 00:19:48;;;;;;;10.02;3.47;;;;;;;;;;5025494;28;20207;-59
2022/05/04 00:22:18;;;;;;;10.57;3.33;;;;;;;;;;5017400;28;21145;-60
2022/05/04 00:24:43;;;;;;;15.27;4.20;;;;;;;;;;5017426;28;20215;-60
2022/05/04 00:27:08;;;;;;;12.15;3.33;;;;;;;;;;4998830;28;20208;-60
2022/05/04 00:29:34;;;;;;;9.82;3.50;;;;;;;;;;5021940;28;20218;-59
2022/05/04 00:31:59;;;;;;;10.88;3.55;;;;;;;;;;5024302;28;20760;-60
2022/05/04 00:34:24;;;;;;;11.35;3.70;;;;;;;;;;5023173;28;20967;-60
2022/05/04 00:36:49;;;;;;;16.60;4.03;;;;;;;;;;5022731;28;20211;-60
2022/05/04 00:39:15;;;;;;;9.43;3.50;;;;;;;;;;5024176;28;20215;-60
2022/05/04 00:41:40;;;;;;;12.98;3.30;;;;;;;;;;5025761;28;20694;-60
2022/05/04 00:44:05;;;;;;;11.82;3.40;;;;;;;;;;5019722;28;20520;-60
2022/05/04 00:46:31;;;;;;;11.55;3.65;;;;;;;;;;5019516;28;20211;-60
2022/05/04 00:48:56;;;;;;;11.30;3.70;;;;;;;;;;5017187;28;20979;-60
2022/05/04 00:51:21;;;;;;;13.80;4.00;;;;;;;;;;5022521;28;20215;-58
2022/05/04 00:53:47;;;;;;;11.60;3.53;;;;;;;;;;5026290;28;20255;-59
2022/05/04 00:56:12;;;;;;;15.25;3.50;;;;;;;;;;5008411;28;20220;-59
2022/05/04 00:58:56;;;;;;;11.07;3.70;;;;;;;;;;5025914;28;20247;-59
2022/05/04 01:01:23;;;;;;;11.88;3.65;;;;;;;;;;5010054;28;20234;-59
2022/05/04 01:03:48;;;;;;;10.50;3.72;;;;;;;;;;5024242;28;20770;-59
2022/05/04 01:06:14;;;;;;;13.00;3.60;;;;;;;;;;5022190;28;20215;-59
2022/05/04 01:08:40;;;;;;;12.38;3.50;;;;;;;;;;5015793;28;20224;-59
2022/05/04 01:11:05;;;;;;;13.63;3.50;;;;;;;;;;5018470;28;20280;-59
2022/05/04 01:13:30;;;;;;;13.25;3.45;;;;;;;;;;5021173;28;20196;-59
2022/05/04 01:15:55;;;;;;;12.15;3.90;;;;;;;;;;5010216;28;20258;-59
2022/05/04 01:18:21;;;;;;;12.90;3.72;;;;;;;;;;5026053;28;20544;-59
2022/05/04 01:20:46;;;;;;;10.85;3.53;;;;;;;;;;5027174;28;20216;-59
2022/05/04 01:23:11;;;;;;;13.77;3.95;;;;;;;;;;5026436;28;20196;-59
2022/05/04 01:25:37;;;;;;;15.82;3.97;;;;;;;;;;5026313;28;20701;-59
2022/05/04 01:28:02;;;;;;;15.48;4.20;;;;;;;;;;5026586;28;20212;-59
2022/05/04 01:30:30;;;;;;;13.93;3.53;;;;;;;;;;5018836;28;20449;-59
2022/05/04 01:32:55;;;;;;;12.75;3.45;;;;;;;;;;5017914;28;20838;-59
2022/05/04 01:35:20;;;;;;;9.48;3.85;;;;;;;;;;5018767;28;20307;-59
2022/05/04 01:37:46;;;;;;;12.32;3.88;;;;;;;;;;5025506;28;20223;-59
2022/05/04 01:40:11;;;;;;;11.05;3.80;;;;;;;;;;5024815;28;20211;-59
2022/05/04 01:42:36;;;;;;;14.18;3.88;;;;;;;;;;5027112;28;20214;-59
2022/05/04 01:45:03;;;;;;;14.18;4.03;;;;;;;;;;5025362;28;20682;-60
2022/05/04 01:47:29;;;;;;;14.27;4.32;;;;;;;;;;5025405;28;20592;-59
2022/05/04 01:49:54;;;;;;;16.58;4.13;;;;;;;;;;5025962;28;20697;-59
2022/05/04 01:52:19;;;;;;;11.55;3.70;;;;;;;;;;5019541;28;20203;-59
2022/05/04 01:54:44;;;;;;;10.00;3.80;;;;;;;;;;5017811;28;20235;-59
2022/05/04 01:57:10;;;;;;;11.30;4.43;;;;;;;;;;5021195;28;20208;-59
2022/05/04 01:59:35;;;;;;;11.82;4.40;;;;;;;;;;5025840;28;20215;-59
2022/05/04 02:02:00;;;;;;;14.15;4.03;;;;;;;;;;5029488;28;20873;-60
2022/05/04 02:04:25;;;;;;;15.63;4.35;;;;;;;;;;5029293;28;20219;-59
2022/05/04 02:06:52;;;;;;;11.00;3.83;;;;;;;;;;5028303;28;20245;-59
2022/05/04 02:09:17;;;;;;;11.60;3.38;;;;;;;;;;5028735;28;20257;-59
2022/05/04 02:11:42;;;;;;;9.98;3.60;;;;;;;;;;5028553;28;20200;-59
2022/05/04 02:14:08;;;;;;;11.85;4.00;;;;;;;;;;5007780;28;20215;-59
2022/05/04 02:16:33;;;;;;;11.18;3.42;;;;;;;;;;5020500;28;20747;-59
2022/05/04 02:18:58;;;;;;;13.95;4.10;;;;;;;;;;5020093;28;20666;-59
2022/05/04 02:21:24;;;;;;;13.30;4.18;;;;;;;;;;5021131;28;20216;-59
2022/05/04 02:23:49;;;;;;;14.13;3.70;;;;;;;;;;5027959;28;20227;-59
2022/05/04 02:26:15;;;;;;;16.25;3.80;;;;;;;;;;5026797;28;20311;-59
2022/05/04 02:28:40;;;;;;;12.68;4.00;;;;;;;;;;5026248;28;20214;-59
2022/05/04 02:31:05;;;;;;;13.18;3.80;;;;;;;;;;5026045;28;20258;-59
2022/05/04 02:33:31;;;;;;;14.27;3.88;;;;;;;;;;5026510;28;20208;-59
2022/05/04 02:38:39;;;;;;;12.90;4.60;;;;;;;;;;5017389;28;20299;-59
2022/05/04 02:41:05;;;;;;;11.35;4.03;;;;;;;;;;5017115;28;20289;-59
2022/05/04 02:43:30;;;;;;;12.65;3.85;;;;;;;;;;5020504;28;20238;-60
2022/05/04 02:45:56;;;;;;;12.95;3.83;;;;;;;;;;5027036;28;20199;-60
2022/05/04 02:48:21;;;;;;;14.55;4.05;;;;;;;;;;5026673;28;20650;-60
2022/05/04 02:50:46;;;;;;;14.18;4.35;;;;;;;;;;5026576;28;20208;-61
2022/05/04 02:53:11;;;;;;;12.38;3.85;;;;;;;;;;5026586;28;20604;-60
2022/05/04 02:55:37;;;;;;;10.38;4.05;;;;;;;;;;5026773;28;20207;-60
2022/05/04 02:58:02;;;;;;;11.75;3.80;;;;;;;;;;5026471;28;20373;-61
2022/05/04 03:00:27;;;;;;;12.88;3.83;;;;;;;;;;5021138;28;20551;-61
2022/05/04 03:02:54;;;;;;;11.05;3.80;;;;;;;;;;5001331;28;20195;-60
2022/05/04 03:05:19;;;;;;;15.70;4.22;;;;;;;;;;5021030;28;20211;-60
2022/05/04 03:07:45;;;;;;;13.73;4.00;;;;;;;;;;5025116;28;20435;-60
2022/05/04 03:10:10;;;;;;;14.57;4.47;;;;;;;;;;5028581;28;20207;-60
2022/05/04 03:12:35;;;;;;;13.18;4.22;;;;;;;;;;5029732;28;20229;-60
2022/05/04 03:15:01;;;;;;;12.52;3.85;;;;;;;;;;5028271;28;20338;-60
2022/05/04 03:17:26;;;;;;;12.35;4.10;;;;;;;;;;5027741;28;20617;-60
2022/05/04 03:19:52;;;;;;;12.43;3.83;;;;;;;;;;5028300;28;20203;-59
2022/05/04 03:22:17;;;;;;;16.77;3.97;;;;;;;;;;5025623;28;20818;-60
2022/05/04 03:24:42;;;;;;;12.75;4.10;;;;;;;;;;5020036;28;20211;-60
2022/05/04 03:27:08;;;;;;;13.73;4.25;;;;;;;;;;5020070;28;20218;-60
2022/05/04 03:29:33;;;;;;;11.40;4.25;;;;;;;;;;5022007;28;20216;-60
2022/05/04 03:31:58;;;;;;;12.88;3.90;;;;;;;;;;5026465;28;20200;-60
2022/05/04 03:34:24;;;;;;;11.48;3.95;;;;;;;;;;5027321;28;20582;-60
2022/05/04 03:36:49;;;;;;;13.00;4.18;;;;;;;;;;5027397;28;20210;-59
2022/05/04 03:39:15;;;;;;;14.68;4.22;;;;;;;;;;5026763;28;20215;-60
2022/05/04 03:41:40;;;;;;;15.50;4.38;;;;;;;;;;5027646;28;20211;-60
2022/05/04 03:44:05;;;;;;;12.52;4.15;;;;;;;;;;5026898;28;20228;-60
2022/05/04 03:46:41;;;;;;;11.95;4.20;;;;;;;;;;5018908;28;20763;-60
2022/05/04 03:49:08;;;;;;;10.57;4.03;;;;;;;;;;5018173;28;20211;-60
2022/05/04 03:51:33;;;;;;;11.55;3.90;;;;;;;;;;5018932;28;20222;-60
2022/05/04 03:53:58;;;;;;;11.45;4.00;;;;;;;;;;5023642;28;20236;-60
2022/05/04 03:56:24;;;;;;;15.50;4.18;;;;;;;;;;5025238;28;20222;-60
2022/05/04 03:58:49;;;;;;;12.10;3.80;;;;;;;;;;5025217;28;20227;-60
2022/05/04 04:01:14;;;;;;;15.05;4.18;;;;;;;;;;5045718;28;20210;-60
2022/05/04 04:03:40;;;;;;;12.23;3.85;;;;;;;;;;5050048;28;20249;-60
2022/05/04 04:06:05;;;;;;;13.48;4.25;;;;;;;;;;5049488;28;20211;-60
2022/05/04 04:08:30;;;;;;;12.20;4.30;;;;;;;;;;5050522;28;20242;-60
2022/05/04 04:10:57;;;;;;;9.55;3.60;;;;;;;;;;5050509;28;20211;-60
2022/05/04 04:13:22;;;;;;;12.20;4.28;;;;;;;;;;5049127;28;20226;-60
2022/05/04 04:15:51;;;;;;;12.30;3.88;;;;;;;;;;5050308;28;20203;-60
2022/05/04 04:18:16;;;;;;;13.93;4.03;;;;;;;;;;5049381;28;20222;-60
2022/05/04 04:23:26;;;;;;;15.77;4.18;;;;;;;;;;5049135;28;20574;-60
2022/05/04 04:25:51;;;;;;;11.60;4.05;;;;;;;;;;5050781;28;20204;-60
2022/05/04 04:28:17;;;;;;;14.60;4.38;;;;;;;;;;5049300;28;20249;-59
2022/05/04 04:30:42;;;;;;;14.75;4.20;;;;;;;;;;5050094;28;20666;-60
2022/05/04 04:33:07;;;;;;;10.35;3.95;;;;;;;;;;5049448;28;20606;-60
2022/05/04 04:35:33;;;;;;;17.33;4.10;;;;;;;;;;5049326;28;20673;-60
2022/05/04 04:37:58;;;;;;;9.70;4.00;;;;;;;;;;5050084;28;20686;-59
2022/05/04 04:40:24;;;;;;;13.93;4.07;;;;;;;;;;5048239;28;20214;-60
2022/05/04 04:42:49;;;;;;;11.48;4.65;;;;;;;;;;5031075;28;20207;-60
2022/05/04 04:45:14;;;;;;;14.88;4.10;;;;;;;;;;5049408;28;20565;-60
2022/05/04 04:47:39;;;;;;;14.20;4.18;;;;;;;;;;5050087;28;20207;-60
2022/05/04 04:50:05;;;;;;;15.65;4.20;;;;;;;;;;5048724;28;20222;-59
2022/05/04 04:52:30;;;;;;;12.35;4.50;;;;;;;;;;5049305;28;20218;-59
2022/05/04 04:54:56;;;;;;;17.17;3.58;;;;;;;;;;5030431;28;20235;-60
2022/05/04 04:57:21;;;;;;;13.60;3.85;;;;;;;;;;5028756;28;20578;-60
2022/05/04 04:59:48;;;;;;;14.48;3.92;;;;;;;;;;5029208;28;20218;-60
2022/05/04 05:02:14;;;;;;;10.07;3.78;;;;;;;;;;5027739;28;20203;-61
2022/05/04 05:04:39;;;;;;;14.02;3.85;;;;;;;;;;5029657;28;20211;-61
2022/05/04 05:07:04;;;;;;;11.55;4.07;;;;;;;;;;5029211;28;20207;-60
2022/05/04 05:09:29;;;;;;;14.27;3.72;;;;;;;;;;5028140;28;20211;-59
2022/05/04 05:11:55;;;;;;;13.33;4.10;;;;;;;;;;5029120;28;20487;-60
2022/05/04 05:17:05;;;;;;;14.27;3.95;;;;;;;;;;5028363;28;20483;-59
2022/05/04 05:19:30;;;;;;;11.23;4.00;;;;;;;;;;5029663;28;20706;-59
2022/05/04 05:21:55;;;;;;;13.60;3.55;;;;;;;;;;5030234;28;20210;-59
2022/05/04 05:24:20;;;;;;;10.60;3.22;;;;;;;;;;5029468;28;20215;-59
2022/05/04 05:26:46;;;;;;;12.75;3.58;;;;;;;;;;5030207;28;20212;-60
2022/05/04 05:29:11;;;;;;;12.75;3.40;;;;;;;;;;5031480;28;20212;-60
2022/05/04 05:31:36;;;;;;;16.55;3.80;;;;;;;;;;5034417;28;20222;-59
2022/05/04 05:34:01;;;;;;;13.02;3.65;;;;;;;;;;5034991;28;20219;-60
2022/05/04 05:36:27;;;;;;;9.95;3.33;;;;;;;;;;5035696;28;20211;-62
2022/05/04 05:38:52;;;;;;;12.18;3.45;;;;;;;;;;5035022;28;20799;-62
2022/05/04 05:41:17;;;;;;;10.60;3.10;;;;;;;;;;5035223;28;20208;-59
2022/05/04 05:43:43;;;;;;;14.33;3.83;;;;;;;;;;5034728;28;20413;-59
2022/05/04 05:46:08;;;;;;;11.55;3.17;;;;;;;;;;5033998;28;20208;-59
2022/05/04 05:48:33;;;;;;;12.68;3.80;;;;;;;;;;5035174;28;20261;-59
2022/05/04 05:51:03;;;;;;;10.63;3.05;;;;;;;;;;5034501;28;20208;-59
2022/05/04 05:53:29;;;;;;;11.50;3.72;;;;;;;;;;5042460;28;20603;-59
2022/05/04 05:55:54;;;;;;;9.80;3.35;;;;;;;;;;5055195;28;20223;-59
2022/05/04 05:58:19;;;;;;;8.82;3.13;;;;;;;;;;5036556;28;20235;-59
2022/05/04 06:00:44;;;;;;;13.00;3.35;;;;;;;;;;5036256;28;20212;-59
2022/05/04 06:03:11;;;;;;;10.82;3.22;;;;;;;;;;5054641;28;20700;-59
2022/05/04 06:05:36;;;;;;;10.73;3.10;;;;;;;;;;5053998;28;20207;-59
2022/05/04 06:08:01;;;;;;;11.55;3.08;;;;;;;;;;5054400;28;20226;-59
2022/05/04 06:10:27;;;;;;;11.88;3.20;;;;;;;;;;5054972;28;20214;-59
2022/05/04 06:12:52;;;;;;;13.00;3.03;;;;;;;;;;5044130;28;20216;-59
2022/05/04 06:15:17;;;;;;;11.00;2.72;;;;;;;;;;5034747;28;20274;-59
2022/05/04 06:17:44;;;;;;;13.13;3.38;;;;;;;;;;5034877;28;20219;-59
2022/05/04 06:20:09;;;;;;;7.93;2.90;;;;;;;;;;5033450;28;20212;-59
2022/05/04 06:22:34;;;;;;;12.32;3.22;;;;;;;;;;5034806;28;20214;-59
2022/05/04 06:25:00;;;;;;;8.40;2.58;;;;;;;;;;5034961;28;20215;-59
2022/05/04 06:27:28;;;;;;;12.05;3.05;;;;;;;;;;5033526;28;20294;-59
2022/05/04 06:35:21;;;;;;;9.13;2.80;;;;;;;;;;5053261;28;20218;-59
2022/05/04 06:37:47;;;;;;;11.63;3.03;;;;;;;;;;5054199;28;20223;-59
2022/05/04 06:40:12;;;;;;;11.90;3.25;;;;;;;;;;5054053;28;20629;-60
2022/05/04 06:42:38;;;;;;;9.23;2.58;;;;;;;;;;5053455;28;20215;-60
2022/05/04 06:45:04;;;;;;;15.88;3.20;;;;;;;;;;5053962;28;20211;-59
2022/05/04 06:47:29;;;;;;;10.55;3.00;;;;;;;;;;5054273;28;20218;-58
2022/05/04 06:49:54;;;;;;;10.77;2.65;;;;;;;;;;5053572;28;20200;-59
2022/05/04 06:52:20;;;;;;;10.90;3.13;;;;;;;;;;5053381;28;20222;-59
2022/05/04 06:54:45;;;;;;;12.32;3.30;;;;;;;;;;5053327;28;20715;-59
2022/05/04 06:57:11;;;;;;;10.32;3.05;;;;;;;;;;5045030;28;20212;-60
2022/05/04 06:59:36;;;;;;;13.40;3.50;;;;;;;;;;5034267;28;20277;-59
2022/05/04 07:02:01;;;;;;;12.85;3.55;;;;;;;;;;5026919;28;20209;-59
2022/05/04 07:04:27;;;;;;;14.00;3.55;;;;;;;;;;5053976;28;20213;-59
2022/05/04 07:06:52;;;;;;;14.98;3.17;;;;;;;;;;5053452;28;20337;-59
2022/05/04 07:09:18;;;;;;;14.90;3.35;;;;;;;;;;5052697;28;20711;-59
2022/05/04 07:11:43;;;;;;;12.00;3.25;;;;;;;;;;5050950;28;20619;-59
2022/05/04 07:14:08;;;;;;;17.42;3.50;;;;;;;;;;5052867;28;20689;-59
2022/05/04 07:16:33;;;;;;;13.00;3.00;;;;;;;;;;5053326;28;20764;-59
2022/05/04 07:18:59;;;;;;;11.20;3.25;;;;;;;;;;5052833;28;20772;-59
2022/05/04 07:21:24;;;;;;;13.45;3.47;;;;;;;;;;5035109;28;20222;-59
2022/05/04 07:23:50;;;;;;;10.55;3.60;;;;;;;;;;5052277;28;20207;-59
2022/05/04 07:26:15;;;;;;;11.85;3.50;;;;;;;;;;5053302;28;20216;-59
2022/05/04 07:28:40;;;;;;;13.38;3.65;;;;;;;;;;5053551;28;20582;-59
2022/05/04 07:31:06;;;;;;;10.25;3.10;;;;;;;;;;5052356;28;20222;-59
2022/05/04 07:33:31;;;;;;;11.00;3.10;;;;;;;;;;5052764;28;20238;-59
2022/05/04 07:35:56;;;;;;;13.02;3.00;;;;;;;;;;5053461;28;20230;-59
2022/05/04 07:38:22;;;;;;;11.15;3.25;;;;;;;;;;5051726;28;20230;-59
2022/05/04 07:43:31;;;;;;;8.63;3.03;;;;;;;;;;5052321;28;20237;-59
2022/05/04 07:45:56;;;;;;;11.75;3.15;;;;;;;;;;5052625;28;20219;-59
2022/05/04 07:48:22;;;;;;;11.48;3.05;;;;;;;;;;5052609;28;20214;-59
2022/05/04 07:50:47;;;;;;;8.05;3.00;;;;;;;;;;5052570;28;20204;-59
2022/05/04 07:53:12;;;;;;;11.15;3.17;;;;;;;;;;5049861;28;20234;-59
2022/05/04 07:55:37;;;;;;;8.73;2.70;;;;;;;;;;5052511;28;20551;-59
2022/05/04 07:58:03;;;;;;;9.48;2.90;;;;;;;;;;5035502;28;20239;-59
2022/05/04 08:05:56;;;;;;;12.63;3.05;;;;;;;;;;5030362;28;20280;-59
2022/05/04 08:08:21;;;;;;;9.48;2.95;;;;;;;;;;5030031;28;20643;-59
2022/05/04 08:10:46;;;;;;;12.68;3.42;;;;;;;;;;5030951;28;20634;-59
2022/05/04 08:13:12;;;;;;;12.30;3.13;;;;;;;;;;5044709;28;20867;-60
2022/05/04 08:15:37;;;;;;;12.18;3.40;;;;;;;;;;5050670;28;20207;-59
2022/05/04 08:18:02;;;;;;;9.68;2.95;;;;;;;;;;5050042;28;20223;-59
2022/05/04 08:20:29;;;;;;;8.80;2.83;;;;;;;;;;5049837;28;20230;-59
2022/05/04 08:22:54;;;;;;;10.27;3.10;;;;;;;;;;5049683;28;20700;-59
2022/05/04 08:25:19;;;;;;;10.93;2.92;;;;;;;;;;5052012;28;20218;-59
2022/05/04 08:27:45;;;;;;;9.82;3.13;;;;;;;;;;5051738;28;20573;-59
2022/05/04 08:30:10;;;;;;;9.48;3.03;;;;;;;;;;5051775;28;20218;-60
2022/05/04 08:32:35;;;;;;;13.88;3.53;;;;;;;;;;5052052;28;20211;-59
2022/05/04 08:35:01;;;;;;;12.75;3.40;;;;;;;;;;5051154;28;20215;-59
2022/05/04 08:37:27;;;;;;;11.30;2.97;;;;;;;;;;5051673;28;20213;-59
2022/05/04 08:39:53;;;;;;;12.27;3.53;;;;;;;;;;5051467;28;20211;-59
2022/05/04 08:42:18;;;;;;;13.88;3.28;;;;;;;;;;5049655;28;20207;-58
2022/05/04 08:44:44;;;;;;;8.77;3.20;;;;;;;;;;5033338;28;20241;-59
2022/05/04 08:47:12;;;;;;;12.27;3.70;;;;;;;;;;5030415;28;20218;-59
2022/05/04 08:49:37;;;;;;;12.68;3.50;;;;;;;;;;5030760;28;20246;-58
2022/05/04 08:52:03;;;;;;;8.43;2.88;;;;;;;;;;5032364;28;20235;-59
2022/05/04 08:54:28;;;;;;;12.93;3.50;;;;;;;;;;5048183;28;20653;-59
2022/05/04 08:56:53;;;;;;;11.95;3.60;;;;;;;;;;5049834;28;20203;-59
2022/05/04 08:59:18;;;;;;;12.32;3.50;;;;;;;;;;5049314;28;20284;-58
2022/05/04 09:01:46;;;;;;;13.50;3.67;;;;;;;;;;5040265;28;20215;-59
2022/05/04 09:04:11;;;;;;;10.38;3.50;;;;;;;;;;5047832;28;20859;-59
2022/05/04 09:06:41;;;;;;;12.45;4.07;;;;;;;;;;5053294;28;20297;-59
2022/05/04 09:09:10;;;;;;;11.25;3.40;;;;;;;;;;5052459;28;20225;-59
2022/05/04 09:11:36;;;;;;;10.65;3.75;;;;;;;;;;5050819;28;20218;-58
2022/05/04 09:14:06;;;;;;;11.63;3.60;;;;;;;;;;5051576;28;20219;-59
2022/05/04 09:16:32;;;;;;;11.02;3.90;;;;;;;;;;5053463;28;20239;-58
2022/05/04 09:19:01;;;;;;;9.23;3.42;;;;;;;;;;5053223;28;20258;-58
2022/05/04 09:21:26;;;;;;;12.05;3.60;;;;;;;;;;5049228;28;20283;-57
2022/05/04 09:23:52;;;;;;;9.00;3.30;;;;;;;;;;5052244;28;20465;-57
2022/05/04 09:26:19;;;;;;;13.82;3.90;;;;;;;;;;5026242;28;20230;-57
2022/05/04 09:28:44;;;;;;;11.05;4.05;;;;;;;;;;5033188;28;20208;-58
2022/05/04 09:31:10;;;;;;;13.35;3.88;;;;;;;;;;5014910;28;20210;-58
2022/05/04 09:33:35;;;;;;;10.95;3.72;;;;;;;;;;5044432;28;20211;-58
2022/05/04 09:36:02;;;;;;;9.07;3.55;;;;;;;;;;5049284;28;20203;-59
2022/05/04 09:46:42;;;;;;;11.98;4.07;;;;;;;;;;5053187;28;20218;-58
2022/05/04 09:49:10;;;;;;;10.60;3.80;;;;;;;;;;5052533;28;20689;-58
2022/05/04 09:51:35;;;;;;;9.07;3.70;;;;;;;;;;5052608;28;20620;-58
2022/05/04 09:54:17;;;;;;;10.80;4.10;;;;;;;;;;5049383;28;20219;-58
2022/05/04 09:56:44;;;;;;;9.50;3.67;;;;;;;;;;5041740;28;20247;-58
2022/05/04 09:59:09;;;;;;;11.68;3.92;;;;;;;;;;5052059;28;20682;-58
2022/05/04 10:01:35;;;;;;;10.27;3.80;;;;;;;;;;5053337;28;20214;-58
2022/05/04 10:04:03;;;;;;;13.05;4.00;;;;;;;;;;5055949;28;20218;-58
2022/05/04 10:06:29;;;;;;;10.82;4.13;;;;;;;;;;5051529;28;20218;-58
2022/05/04 10:08:54;;;;;;;9.45;4.30;;;;;;;;;;5040993;28;20203;-57
2022/05/04 10:11:19;;;;;;;10.73;4.40;;;;;;;;;;5051946;28;20686;-58
2022/05/04 10:13:44;;;;;;;11.45;4.30;;;;;;;;;;5042807;28;20215;-57
2022/05/04 10:16:11;;;;;;;11.13;4.30;;;;;;;;;;5052196;28;20233;-58
2022/05/04 10:18:36;;;;;;;7.97;4.00;;;;;;;;;;5051697;28;20223;-58
2022/05/04 10:21:07;;;;;;;12.07;4.00;;;;;;;;;;5034801;28;20204;-58
2022/05/04 10:23:35;;;;;;;9.82;3.97;;;;;;;;;;5034698;28;20203;-58
2022/05/04 10:26:00;;;;;;;10.30;3.90;;;;;;;;;;5051821;28;20268;-58
2022/05/04 10:28:25;;;;;;;9.20;3.72;;;;;;;;;;5052473;28;20215;-58
2022/05/04 10:30:51;;;;;;;9.38;3.97;;;;;;;;;;5052610;28;20282;-58
2022/05/04 10:33:18;;;;;;;10.25;3.78;;;;;;;;;;5051085;28;20227;-58
2022/05/04 10:35:45;;;;;;;10.10;4.00;;;;;;;;;;5052259;28;20203;-58
2022/05/04 10:38:11;;;;;;;10.57;4.72;;;;;;;;;;5052077;28;20234;-58
2022/05/04 10:40:37;;;;;;;9.40;4.10;;;;;;;;;;5051512;28;20207;-58
2022/05/04 10:43:05;;;;;;;11.93;4.88;;;;;;;;;;5052043;28;20277;-58
2022/05/04 10:45:31;;;;;;;10.40;3.95;;;;;;;;;;5054385;28;20699;-58
2022/05/04 10:48:13;;;;;;;14.25;4.72;;;;;;;;;;5051237;28;20302;-58
2022/05/04 10:50:55;;;;;;;11.80;4.60;;;;;;;;;;5052001;28;20210;-58
2022/05/04 10:53:21;;;;;;;11.10;4.35;;;;;;;;;;5051639;28;20227;-58
2022/05/04 10:55:55;;;;;;;10.55;4.70;;;;;;;;;;5050943;28;20219;-58
2022/05/04 10:58:34;;;;;;;10.52;4.53;;;;;;;;;;5051441;28;20231;-57
2022/05/04 11:01:09;;;;;;;11.02;5.10;;;;;;;;;;5051554;28;20203;-57
2022/05/04 11:03:35;;;;;;;10.55;5.35;;;;;;;;;;5052443;28;20694;-58
2022/05/04 11:06:07;;;;;;;10.07;4.47;;;;;;;;;;5052900;28;20211;-60
2022/05/04 11:08:34;;;;;;;8.18;3.90;;;;;;;;;;5053142;28;20621;-58
2022/05/04 11:11:00;;;;;;;11.02;4.32;;;;;;;;;;5036003;28;20203;-58
2022/05/04 11:13:25;;;;;;;12.15;4.78;;;;;;;;;;5033953;28;20207;-58
2022/05/04 11:15:52;;;;;;;9.75;4.60;;;;;;;;;;5031122;28;20211;-58
2022/05/04 11:18:18;;;;;;;10.95;4.93;;;;;;;;;;5048635;28;20258;-58
2022/05/04 11:20:45;;;;;;;12.65;4.82;;;;;;;;;;5052791;28;20732;-58
2022/05/04 11:23:11;;;;;;;13.90;5.18;;;;;;;;;;5052067;28;20623;-58
2022/05/04 11:25:36;;;;;;;13.20;4.80;;;;;;;;;;5052999;28;20235;-58
2022/05/04 11:28:02;;;;;;;9.48;4.97;;;;;;;;;;5052013;28;20219;-59
2022/05/04 11:30:28;;;;;;;11.07;4.38;;;;;;;;;;5052942;28;20261;-58
2022/05/04 11:32:53;;;;;;;10.10;5.05;;;;;;;;;;5053014;28;20591;-58
2022/05/04 11:35:18;;;;;;;10.45;4.50;;;;;;;;;;5052933;28;20211;-58
2022/05/04 11:37:43;;;;;;;12.02;4.60;;;;;;;;;;5052366;28;20210;-58
2022/05/04 11:40:10;;;;;;;14.80;5.35;;;;;;;;;;5052862;28;20215;-57
2022/05/04 11:42:36;;;;;;;10.65;4.80;;;;;;;;;;5053149;28;20687;-58
2022/05/04 11:45:01;;;;;;;13.13;4.80;;;;;;;;;;5033953;28;20297;-59
2022/05/04 11:47:27;;;;;;;15.50;5.57;;;;;;;;;;5053133;28;20211;-57
2022/05/04 11:49:53;;;;;;;12.27;4.85;;;;;;;;;;5035199;28;20211;-57
2022/05/04 11:52:18;;;;;;;8.32;4.65;;;;;;;;;;5051800;28;20242;-58
2022/05/04 11:54:44;;;;;;;10.73;4.35;;;;;;;;;;5052448;28;20263;-58
2022/05/04 11:57:12;;;;;;;8.80;4.07;;;;;;;;;;5051544;28;20199;-58
2022/05/04 11:59:37;;;;;;;13.98;4.40;;;;;;;;;;5052782;28;20246;-58
2022/05/04 12:02:02;;;;;;;10.40;4.43;;;;;;;;;;5052327;28;20576;-58
2022/05/04 12:04:28;;;;;;;10.90;4.40;;;;;;;;;;5051623;28;20218;-58
2022/05/04 12:06:54;;;;;;;15.85;5.22;;;;;;;;;;5027815;28;20223;-58
2022/05/04 12:09:19;;;;;;;10.82;4.60;;;;;;;;;;5030667;28;20581;-58
2022/05/04 12:11:44;;;;;;;11.98;4.75;;;;;;;;;;5026944;28;20204;-58
2022/05/04 12:14:10;;;;;;;8.77;4.68;;;;;;;;;;5024975;28;20319;-58
2022/05/04 12:16:35;;;;;;;9.35;4.65;;;;;;;;;;5032752;28;20226;-58
2022/05/04 12:19:01;;;;;;;11.93;4.70;;;;;;;;;;5031834;28;20223;-58
2022/05/04 12:21:26;;;;;;;10.90;4.57;;;;;;;;;;5044147;28;20227;-57
2022/05/04 12:23:52;;;;;;;13.48;4.25;;;;;;;;;;5052598;28;20221;-58
2022/05/04 12:26:17;;;;;;;13.23;4.65;;;;;;;;;;5051299;28;20365;-58
2022/05/04 12:28:44;;;;;;;11.75;4.30;;;;;;;;;;5052201;28;20658;-58
2022/05/04 12:33:53;;;;;;;9.80;4.93;;;;;;;;;;5053249;28;20558;-58
2022/05/04 12:36:19;;;;;;;11.48;4.85;;;;;;;;;;5052488;28;20211;-58
2022/05/04 12:38:47;;;;;;;11.40;4.57;;;;;;;;;;5052182;28;20247;-58
2022/05/04 12:41:12;;;;;;;10.20;4.88;;;;;;;;;;5042985;28;20215;-58
2022/05/04 12:43:38;;;;;;;11.65;4.60;;;;;;;;;;5051772;28;20582;-57
2022/05/04 12:46:04;;;;;;;11.30;4.38;;;;;;;;;;5051573;28;20260;-58
2022/05/04 12:48:29;;;;;;;12.60;5.13;;;;;;;;;;5051307;28;20215;-58
2022/05/04 12:50:55;;;;;;;11.40;4.75;;;;;;;;;;5052032;28;20207;-58
2022/05/04 12:53:20;;;;;;;9.27;4.30;;;;;;;;;;5046543;28;20238;-58
2022/05/04 12:58:29;;;;;;;11.32;5.10;;;;;;;;;;5051621;28;20325;-58
2022/05/04 13:00:55;;;;;;;14.40;5.20;;;;;;;;;;5050763;28;20302;-58
2022/05/04 13:03:21;;;;;;;10.85;4.85;;;;;;;;;;5051653;28;20587;-58
2022/05/04 13:05:46;;;;;;;12.32;4.30;;;;;;;;;;5054571;28;20265;-58
2022/05/04 13:08:11;;;;;;;12.95;4.28;;;;;;;;;;5050953;28;20578;-58
2022/05/04 13:10:37;;;;;;;11.45;4.80;;;;;;;;;;5052171;28;20239;-58
2022/05/04 13:13:02;;;;;;;11.93;4.07;;;;;;;;;;5035336;28;20241;-58
2022/05/04 13:15:27;;;;;;;11.73;4.18;;;;;;;;;;5026247;28;20216;-58
2022/05/04 13:17:53;;;;;;;10.88;3.95;;;;;;;;;;5047171;28;20306;-58
2022/05/04 13:20:19;;;;;;;11.77;4.72;;;;;;;;;;5051536;28;20226;-58
2022/05/04 13:22:44;;;;;;;12.73;3.78;;;;;;;;;;5051169;28;20625;-58
2022/05/04 13:25:10;;;;;;;12.85;4.18;;;;;;;;;;5051180;28;20310;-58
2022/05/04 13:27:35;;;;;;;9.75;3.90;;;;;;;;;;5051897;28;20731;-58
2022/05/04 13:30:01;;;;;;;12.52;4.45;;;;;;;;;;5050592;28;20241;-59
2022/05/04 13:32:26;;;;;;;12.57;3.90;;;;;;;;;;5051461;28;20211;-58
2022/05/04 13:34:51;;;;;;;13.57;4.20;;;;;;;;;;5050923;28;20670;-57
2022/05/04 13:37:17;;;;;;;9.00;4.13;;;;;;;;;;5030033;28;20216;-58
2022/05/04 13:39:42;;;;;;;9.52;4.20;;;;;;;;;;5037652;28;20238;-58
2022/05/04 13:42:07;;;;;;;11.45;4.47;;;;;;;;;;5051703;28;20686;-58
2022/05/04 13:44:33;;;;;;;12.98;4.13;;;;;;;;;;5050498;28;20208;-58
2022/05/04 13:46:58;;;;;;;9.63;3.78;;;;;;;;;;5051602;28;20212;-58
2022/05/04 13:49:23;;;;;;;8.38;3.55;;;;;;;;;;5051138;28;20211;-58
2022/05/04 13:54:32;;;;;;;10.20;3.75;;;;;;;;;;5031050;28;20287;-58
2022/05/04 13:56:58;;;;;;;13.38;3.90;;;;;;;;;;5054511;28;20299;-58
2022/05/04 13:59:24;;;;;;;8.90;4.05;;;;;;;;;;5054637;28;20230;-58
2022/05/04 14:01:50;;;;;;;13.25;4.47;;;;;;;;;;5054646;28;20207;-58
2022/05/04 14:04:15;;;;;;;12.48;4.07;;;;;;;;;;5053419;28;20215;-59
2022/05/04 14:06:42;;;;;;;11.05;4.38;;;;;;;;;;5055224;28;20199;-57
2022/05/04 14:09:08;;;;;;;10.05;3.30;;;;;;;;;;5054459;28;20658;-59
2022/05/04 14:11:33;;;;;;;9.20;4.00;;;;;;;;;;5049047;28;20210;-59
2022/05/04 14:16:42;;;;;;;12.63;4.15;;;;;;;;;;5052544;28;20288;-59
2022/05/04 14:19:08;;;;;;;9.65;4.30;;;;;;;;;;5052876;28;20693;-59
2022/05/04 14:21:34;;;;;;;8.80;3.60;;;;;;;;;;5054996;28;20657;-58
2022/05/04 14:23:59;;;;;;;9.45;3.80;;;;;;;;;;5054457;28;20199;-58
2022/05/04 14:26:24;;;;;;;13.77;4.43;;;;;;;;;;5053349;28;20237;-59
2022/05/04 14:28:49;;;;;;;11.57;4.15;;;;;;;;;;5054704;28;20626;-59
2022/05/04 14:31:15;;;;;;;11.52;3.97;;;;;;;;;;5053728;28;20223;-59
2022/05/04 14:33:40;;;;;;;10.05;3.38;;;;;;;;;;5053607;28;20203;-59
2022/05/04 14:36:05;;;;;;;11.48;3.92;;;;;;;;;;5053959;28;20677;-59
2022/05/04 14:38:31;;;;;;;8.93;4.03;;;;;;;;;;5054320;28;20219;-59
2022/05/04 14:40:57;;;;;;;9.52;3.63;;;;;;;;;;5053774;28;20257;-59
2022/05/04 14:43:23;;;;;;;9.27;3.67;;;;;;;;;;5053996;28;20281;-59
2022/05/04 14:45:49;;;;;;;11.27;3.80;;;;;;;;;;5053318;28;20551;-59
2022/05/04 14:48:14;;;;;;;8.40;4.00;;;;;;;;;;5053087;28;20719;-59
2022/05/04 14:50:39;;;;;;;10.98;2.88;;;;;;;;;;5054397;28;20233;-59
2022/05/04 14:53:04;;;;;;;8.82;3.20;;;;;;;;;;5052974;28;20222;-59
2022/05/04 14:55:30;;;;;;;9.07;3.30;;;;;;;;;;5052476;28;20207;-59
2022/05/04 14:57:55;;;;;;;10.25;3.05;;;;;;;;;;5054052;28;20211;-59
2022/05/04 15:00:20;;;;;;;7.90;3.10;;;;;;;;;;5052800;28;20662;-59
2022/05/04 15:05:29;;;;;;;11.68;3.13;;;;;;;;;;5035654;28;20257;-59
2022/05/04 15:07:55;;;;;;;11.63;2.63;;;;;;;;;;5039169;28;20211;-59